sensor_id;sensor_type;location;lat;lon;timestamp;P1;durP1;ratioP1;P2;durP2;ratioP2
28934;SDS011;16044;52.726;-2.108;2023-12-14T00:02:01;21.05;;;9.50;;
28934;SDS011;16044;52.726;-2.108;2023-12-14T00:04:34;19.75;;;8.40;;
28934;SDS011;16044;52.726;-2.108;2023-12-14T00:07:04;22.20;;;8.95;;
28934;SDS011;16044;52.726;-2.108;2023-12-14T00:09:35;22.58;;;8.90;;
28934;SDS011;16044;52.726;-2.108;2023-12-14T00:12:05;19.88;;;7.88;;
28934;SDS011;16044;52.726;-2.108;2023-12-14T00:14:36;19.58;;;7.28;;
28934;SDS011;16044;52.726;-2.108;2023-12-14T00:17:06;17.48;;;7.35;;
28934;SDS011;16044;52.726;-2.108;2023-12-14T00:19:39;22.25;;;7.57;;
28934;SDS011;16044;52.726;-2.108;2023-12-14T00:22:10;17.10;;;7.55;;
28934;SDS011;16044;52.726;-2.108;2023-12-14T00:24:40;18.98;;;6.80;;
28934;SDS011;16044;52.726;-2.108;2023-12-14T00:27:11;15.70;;;6.80;;
28934;SDS011;16044;52.726;-2.108;2023-12-14T00:29:41;21.15;;;7.95;;
28934;SDS011;16044;52.726;-2.108;2023-12-14T00:32:11;17.25;;;7.43;;
28934;SDS011;16044;52.726;-2.108;2023-12-14T00:34:44;18.42;;;7.90;;
28934;SDS011;16044;52.726;-2.108;2023-12-14T00:37:15;20.45;;;8.05;;
28934;SDS011;16044;52.726;-2.108;2023-12-14T00:39:46;14.25;;;6.97;;
28934;SDS011;16044;52.726;-2.108;2023-12-14T00:42:16;18.77;;;7.65;;
28934;SDS011;16044;52.726;-2.108;2023-12-14T00:44:46;18.65;;;8.10;;
28934;SDS011;16044;52.726;-2.108;2023-12-14T00:47:17;21.85;;;8.52;;
28934;SDS011;16044;52.726;-2.108;2023-12-14T00:49:49;19.55;;;7.40;;
28934;SDS011;16044;52.726;-2.108;2023-12-14T00:52:20;19.08;;;7.10;;
28934;SDS011;16044;52.726;-2.108;2023-12-14T00:54:50;16.92;;;6.97;;
28934;SDS011;16044;52.726;-2.108;2023-12-14T00:57:21;20.08;;;8.77;;
28934;SDS011;16044;52.726;-2.108;2023-12-14T00:59:51;21.25;;;8.30;;
28934;SDS011;16044;52.726;-2.108;2023-12-14T01:02:21;23.00;;;8.00;;
28934;SDS011;16044;52.726;-2.108;2023-12-14T01:04:54;19.75;;;7.50;;
28934;SDS011;16044;52.726;-2.108;2023-12-14T01:07:27;16.63;;;8.00;;
28934;SDS011;16044;52.726;-2.108;2023-12-14T01:09:58;29.33;;;9.55;;
28934;SDS011;16044;52.726;-2.108;2023-12-14T01:12:28;12.52;;;7.47;;
28934;SDS011;16044;52.726;-2.108;2023-12-14T01:14:59;19.10;;;8.15;;
28934;SDS011;16044;52.726;-2.108;2023-12-14T01:17:30;19.35;;;7.75;;
28934;SDS011;16044;52.726;-2.108;2023-12-14T01:20:07;17.23;;;7.60;;
28934;SDS011;16044;52.726;-2.108;2023-12-14T01:22:38;24.17;;;8.65;;
28934;SDS011;16044;52.726;-2.108;2023-12-14T01:25:08;20.90;;;9.13;;
28934;SDS011;16044;52.726;-2.108;2023-12-14T01:27:39;24.58;;;9.05;;
28934;SDS011;16044;52.726;-2.108;2023-12-14T01:30:10;20.95;;;9.48;;
28934;SDS011;16044;52.726;-2.108;2023-12-14T01:32:41;19.58;;;9.00;;
28934;SDS011;16044;52.726;-2.108;2023-12-14T01:35:14;18.58;;;8.05;;
28934;SDS011;16044;52.726;-2.108;2023-12-14T01:37:45;19.60;;;9.35;;
28934;SDS011;16044;52.726;-2.108;2023-12-14T01:40:15;26.00;;;10.15;;
28934;SDS011;16044;52.726;-2.108;2023-12-14T01:42:48;22.42;;;9.93;;
28934;SDS011;16044;52.726;-2.108;2023-12-14T01:45:18;25.77;;;10.05;;
28934;SDS011;16044;52.726;-2.108;2023-12-14T01:47:49;24.48;;;11.15;;
28934;SDS011;16044;52.726;-2.108;2023-12-14T01:50:22;27.10;;;11.30;;
28934;SDS011;16044;52.726;-2.108;2023-12-14T01:52:52;20.83;;;11.10;;
28934;SDS011;16044;52.726;-2.108;2023-12-14T01:55:22;30.30;;;11.90;;
28934;SDS011;16044;52.726;-2.108;2023-12-14T01:57:53;25.75;;;11.70;;
28934;SDS011;16044;52.726;-2.108;2023-12-14T02:00:26;24.65;;;12.23;;
28934;SDS011;16044;52.726;-2.108;2023-12-14T02:03:05;27.67;;;11.80;;
28934;SDS011;16044;52.726;-2.108;2023-12-14T02:05:38;25.83;;;11.35;;
28934;SDS011;16044;52.726;-2.108;2023-12-14T02:08:09;27.35;;;11.02;;
28934;SDS011;16044;52.726;-2.108;2023-12-14T02:10:39;23.42;;;11.60;;
28934;SDS011;16044;52.726;-2.108;2023-12-14T02:13:10;26.85;;;11.50;;
28934;SDS011;16044;52.726;-2.108;2023-12-14T02:15:40;22.35;;;10.95;;
28934;SDS011;16044;52.726;-2.108;2023-12-14T02:18:11;24.23;;;10.80;;
28934;SDS011;16044;52.726;-2.108;2023-12-14T02:20:44;26.92;;;12.07;;
28934;SDS011;16044;52.726;-2.108;2023-12-14T02:23:17;26.10;;;10.85;;
28934;SDS011;16044;52.726;-2.108;2023-12-14T02:25:48;30.77;;;12.25;;
28934;SDS011;16044;52.726;-2.108;2023-12-14T02:28:18;25.00;;;11.68;;
28934;SDS011;16044;52.726;-2.108;2023-12-14T02:30:48;26.58;;;12.13;;
28934;SDS011;16044;52.726;-2.108;2023-12-14T02:33:19;24.85;;;11.00;;
28934;SDS011;16044;52.726;-2.108;2023-12-14T02:35:49;19.92;;;9.40;;
28934;SDS011;16044;52.726;-2.108;2023-12-14T02:38:22;22.60;;;11.25;;
28934;SDS011;16044;52.726;-2.108;2023-12-14T02:40:53;20.63;;;10.73;;
28934;SDS011;16044;52.726;-2.108;2023-12-14T02:43:23;25.83;;;11.13;;
28934;SDS011;16044;52.726;-2.108;2023-12-14T02:45:53;28.02;;;11.88;;
28934;SDS011;16044;52.726;-2.108;2023-12-14T02:48:29;26.83;;;12.00;;
28934;SDS011;16044;52.726;-2.108;2023-12-14T02:51:00;31.08;;;12.57;;
28934;SDS011;16044;52.726;-2.108;2023-12-14T02:53:33;21.30;;;10.65;;
28934;SDS011;16044;52.726;-2.108;2023-12-14T02:56:04;27.30;;;11.43;;
28934;SDS011;16044;52.726;-2.108;2023-12-14T02:58:35;21.55;;;11.25;;
28934;SDS011;16044;52.726;-2.108;2023-12-14T03:01:05;20.08;;;10.18;;
28934;SDS011;16044;52.726;-2.108;2023-12-14T03:03:38;21.48;;;9.88;;
28934;SDS011;16044;52.726;-2.108;2023-12-14T03:06:08;19.92;;;10.88;;
28934;SDS011;16044;52.726;-2.108;2023-12-14T03:08:41;20.98;;;10.35;;
28934;SDS011;16044;52.726;-2.108;2023-12-14T03:11:20;28.70;;;10.85;;
28934;SDS011;16044;52.726;-2.108;2023-12-14T03:13:52;25.83;;;11.35;;
28934;SDS011;16044;52.726;-2.108;2023-12-14T03:16:22;28.48;;;11.40;;
28934;SDS011;16044;52.726;-2.108;2023-12-14T03:18:52;23.08;;;9.45;;
28934;SDS011;16044;52.726;-2.108;2023-12-14T03:21:23;27.08;;;12.00;;
28934;SDS011;16044;52.726;-2.108;2023-12-14T03:23:56;21.17;;;10.82;;
28934;SDS011;16044;52.726;-2.108;2023-12-14T03:26:26;28.42;;;11.82;;
28934;SDS011;16044;52.726;-2.108;2023-12-14T03:28:57;28.42;;;11.98;;
28934;SDS011;16044;52.726;-2.108;2023-12-14T03:31:27;34.70;;;11.80;;
28934;SDS011;16044;52.726;-2.108;2023-12-14T03:33:58;25.42;;;11.27;;
28934;SDS011;16044;52.726;-2.108;2023-12-14T03:36:28;32.90;;;11.98;;
28934;SDS011;16044;52.726;-2.108;2023-12-14T03:39:01;26.85;;;11.35;;
28934;SDS011;16044;52.726;-2.108;2023-12-14T03:41:32;21.57;;;10.10;;
28934;SDS011;16044;52.726;-2.108;2023-12-14T03:44:03;26.30;;;12.00;;
28934;SDS011;16044;52.726;-2.108;2023-12-14T03:46:34;25.77;;;10.13;;
28934;SDS011;16044;52.726;-2.108;2023-12-14T03:49:04;20.38;;;10.70;;
28934;SDS011;16044;52.726;-2.108;2023-12-14T03:51:35;21.33;;;10.15;;
28934;SDS011;16044;52.726;-2.108;2023-12-14T03:54:08;20.05;;;9.77;;
28934;SDS011;16044;52.726;-2.108;2023-12-14T03:56:39;22.77;;;9.77;;
28934;SDS011;16044;52.726;-2.108;2023-12-14T03:59:09;24.50;;;10.55;;
28934;SDS011;16044;52.726;-2.108;2023-12-14T04:01:39;20.85;;;9.70;;
28934;SDS011;16044;52.726;-2.108;2023-12-14T04:04:09;21.55;;;9.85;;
28934;SDS011;16044;52.726;-2.108;2023-12-14T04:06:40;29.73;;;9.93;;
28934;SDS011;16044;52.726;-2.108;2023-12-14T04:09:13;23.73;;;10.43;;
28934;SDS011;16044;52.726;-2.108;2023-12-14T04:11:43;21.35;;;9.60;;
28934;SDS011;16044;52.726;-2.108;2023-12-14T04:14:14;20.05;;;9.65;;
28934;SDS011;16044;52.726;-2.108;2023-12-14T04:16:44;21.75;;;9.20;;
28934;SDS011;16044;52.726;-2.108;2023-12-14T04:19:14;22.60;;;9.07;;
28934;SDS011;16044;52.726;-2.108;2023-12-14T04:21:45;20.90;;;8.90;;
28934;SDS011;16044;52.726;-2.108;2023-12-14T04:24:18;24.02;;;9.23;;
28934;SDS011;16044;52.726;-2.108;2023-12-14T04:26:48;22.75;;;9.00;;
28934;SDS011;16044;52.726;-2.108;2023-12-14T04:29:19;17.30;;;8.02;;
28934;SDS011;16044;52.726;-2.108;2023-12-14T04:31:49;18.75;;;8.77;;
28934;SDS011;16044;52.726;-2.108;2023-12-14T04:34:20;17.88;;;7.80;;
28934;SDS011;16044;52.726;-2.108;2023-12-14T04:36:50;17.23;;;8.25;;
28934;SDS011;16044;52.726;-2.108;2023-12-14T04:39:26;18.75;;;7.72;;
28934;SDS011;16044;52.726;-2.108;2023-12-14T04:41:57;16.15;;;7.05;;
28934;SDS011;16044;52.726;-2.108;2023-12-14T04:44:27;14.93;;;7.53;;
28934;SDS011;16044;52.726;-2.108;2023-12-14T04:46:57;17.00;;;7.55;;
28934;SDS011;16044;52.726;-2.108;2023-12-14T04:49:28;20.08;;;7.93;;
28934;SDS011;16044;52.726;-2.108;2023-12-14T04:51:58;24.85;;;8.63;;
28934;SDS011;16044;52.726;-2.108;2023-12-14T04:54:32;17.77;;;7.30;;
28934;SDS011;16044;52.726;-2.108;2023-12-14T04:57:04;17.38;;;7.57;;
28934;SDS011;16044;52.726;-2.108;2023-12-14T04:59:35;20.45;;;7.78;;
28934;SDS011;16044;52.726;-2.108;2023-12-14T05:02:05;19.67;;;6.88;;
28934;SDS011;16044;52.726;-2.108;2023-12-14T05:04:35;17.50;;;6.15;;
28934;SDS011;16044;52.726;-2.108;2023-12-14T05:07:06;14.30;;;6.05;;
28934;SDS011;16044;52.726;-2.108;2023-12-14T05:09:39;16.25;;;5.85;;
28934;SDS011;16044;52.726;-2.108;2023-12-14T05:12:09;18.58;;;5.85;;
28934;SDS011;16044;52.726;-2.108;2023-12-14T05:14:39;15.95;;;5.57;;
28934;SDS011;16044;52.726;-2.108;2023-12-14T05:17:10;19.27;;;6.03;;
28934;SDS011;16044;52.726;-2.108;2023-12-14T05:19:40;13.52;;;4.45;;
28934;SDS011;16044;52.726;-2.108;2023-12-14T05:22:11;13.90;;;4.78;;
28934;SDS011;16044;52.726;-2.108;2023-12-14T05:24:45;13.52;;;4.70;;
28934;SDS011;16044;52.726;-2.108;2023-12-14T05:27:16;14.48;;;4.22;;
28934;SDS011;16044;52.726;-2.108;2023-12-14T05:29:46;17.48;;;4.47;;
28934;SDS011;16044;52.726;-2.108;2023-12-14T05:32:17;14.07;;;3.85;;
28934;SDS011;16044;52.726;-2.108;2023-12-14T05:34:47;10.30;;;3.67;;
28934;SDS011;16044;52.726;-2.108;2023-12-14T05:37:17;11.75;;;3.88;;
28934;SDS011;16044;52.726;-2.108;2023-12-14T05:39:50;13.32;;;4.07;;
28934;SDS011;16044;52.726;-2.108;2023-12-14T05:42:21;16.27;;;4.40;;
28934;SDS011;16044;52.726;-2.108;2023-12-14T05:44:51;11.98;;;3.47;;
28934;SDS011;16044;52.726;-2.108;2023-12-14T05:47:21;6.88;;;3.03;;
28934;SDS011;16044;52.726;-2.108;2023-12-14T05:49:52;15.35;;;4.00;;
28934;SDS011;16044;52.726;-2.108;2023-12-14T05:52:22;13.52;;;3.50;;
28934;SDS011;16044;52.726;-2.108;2023-12-14T05:54:55;12.90;;;3.53;;
28934;SDS011;16044;52.726;-2.108;2023-12-14T05:57:30;9.98;;;3.65;;
28934;SDS011;16044;52.726;-2.108;2023-12-14T06:00:00;14.55;;;4.55;;
28934;SDS011;16044;52.726;-2.108;2023-12-14T06:02:32;18.10;;;3.92;;
28934;SDS011;16044;52.726;-2.108;2023-12-14T06:05:05;16.67;;;3.95;;
28934;SDS011;16044;52.726;-2.108;2023-12-14T06:07:38;11.95;;;4.10;;
28934;SDS011;16044;52.726;-2.108;2023-12-14T06:10:11;9.73;;;3.65;;
28934;SDS011;16044;52.726;-2.108;2023-12-14T06:12:41;13.73;;;3.67;;
28934;SDS011;16044;52.726;-2.108;2023-12-14T06:15:12;14.85;;;3.80;;
28934;SDS011;16044;52.726;-2.108;2023-12-14T06:17:42;12.63;;;3.28;;
28934;SDS011;16044;52.726;-2.108;2023-12-14T06:20:13;11.15;;;3.40;;
28934;SDS011;16044;52.726;-2.108;2023-12-14T06:22:43;9.05;;;3.47;;
28934;SDS011;16044;52.726;-2.108;2023-12-14T06:25:16;15.32;;;3.97;;
28934;SDS011;16044;52.726;-2.108;2023-12-14T06:27:46;11.32;;;3.75;;
28934;SDS011;16044;52.726;-2.108;2023-12-14T06:30:17;12.35;;;3.78;;
28934;SDS011;16044;52.726;-2.108;2023-12-14T06:32:47;8.77;;;2.92;;
28934;SDS011;16044;52.726;-2.108;2023-12-14T06:35:18;12.55;;;3.30;;
28934;SDS011;16044;52.726;-2.108;2023-12-14T06:37:48;11.50;;;3.10;;
28934;SDS011;16044;52.726;-2.108;2023-12-14T06:40:21;10.27;;;3.22;;
28934;SDS011;16044;52.726;-2.108;2023-12-14T06:42:52;11.48;;;3.25;;
28934;SDS011;16044;52.726;-2.108;2023-12-14T06:45:22;13.50;;;3.42;;
28934;SDS011;16044;52.726;-2.108;2023-12-14T06:47:53;10.85;;;3.33;;
28934;SDS011;16044;52.726;-2.108;2023-12-14T06:50:23;14.35;;;3.40;;
28934;SDS011;16044;52.726;-2.108;2023-12-14T06:52:54;14.77;;;3.88;;
28934;SDS011;16044;52.726;-2.108;2023-12-14T06:55:27;11.10;;;3.55;;
28934;SDS011;16044;52.726;-2.108;2023-12-14T06:57:58;12.77;;;3.88;;
28934;SDS011;16044;52.726;-2.108;2023-12-14T07:00:28;17.75;;;4.50;;
28934;SDS011;16044;52.726;-2.108;2023-12-14T07:02:58;19.58;;;4.45;;
28934;SDS011;16044;52.726;-2.108;2023-12-14T07:05:29;15.05;;;4.25;;
28934;SDS011;16044;52.726;-2.108;2023-12-14T07:08:00;16.75;;;3.95;;
28934;SDS011;16044;52.726;-2.108;2023-12-14T07:10:33;11.65;;;3.90;;
28934;SDS011;16044;52.726;-2.108;2023-12-14T07:13:04;11.25;;;3.80;;
28934;SDS011;16044;52.726;-2.108;2023-12-14T07:15:35;13.90;;;4.30;;
28934;SDS011;16044;52.726;-2.108;2023-12-14T07:18:05;11.95;;;3.63;;
28934;SDS011;16044;52.726;-2.108;2023-12-14T07:20:35;19.55;;;3.80;;
28934;SDS011;16044;52.726;-2.108;2023-12-14T07:23:06;15.25;;;3.88;;
28934;SDS011;16044;52.726;-2.108;2023-12-14T07:25:39;10.65;;;3.60;;
28934;SDS011;16044;52.726;-2.108;2023-12-14T07:28:09;12.85;;;4.15;;
28934;SDS011;16044;52.726;-2.108;2023-12-14T07:30:39;14.40;;;3.85;;
28934;SDS011;16044;52.726;-2.108;2023-12-14T07:33:10;13.45;;;4.20;;
28934;SDS011;16044;52.726;-2.108;2023-12-14T07:35:40;17.88;;;4.45;;
28934;SDS011;16044;52.726;-2.108;2023-12-14T07:38:11;16.65;;;4.63;;
28934;SDS011;16044;52.726;-2.108;2023-12-14T07:40:44;12.82;;;3.45;;
28934;SDS011;16044;52.726;-2.108;2023-12-14T07:43:17;12.30;;;3.30;;
28934;SDS011;16044;52.726;-2.108;2023-12-14T07:45:47;10.32;;;3.42;;
28934;SDS011;16044;52.726;-2.108;2023-12-14T07:48:17;13.07;;;3.80;;
28934;SDS011;16044;52.726;-2.108;2023-12-14T07:50:48;11.90;;;3.33;;
28934;SDS011;16044;52.726;-2.108;2023-12-14T07:53:19;15.13;;;3.63;;
28934;SDS011;16044;52.726;-2.108;2023-12-14T07:55:52;11.05;;;3.20;;
28934;SDS011;16044;52.726;-2.108;2023-12-14T07:58:22;8.45;;;3.10;;
28934;SDS011;16044;52.726;-2.108;2023-12-14T08:00:53;11.65;;;3.22;;
28934;SDS011;16044;52.726;-2.108;2023-12-14T08:03:23;8.20;;;2.70;;
28934;SDS011;16044;52.726;-2.108;2023-12-14T08:05:54;12.77;;;3.22;;
28934;SDS011;16044;52.726;-2.108;2023-12-14T08:08:24;8.93;;;2.60;;
28934;SDS011;16044;52.726;-2.108;2023-12-14T08:10:57;14.93;;;3.33;;
28934;SDS011;16044;52.726;-2.108;2023-12-14T08:13:27;15.90;;;3.53;;
28934;SDS011;16044;52.726;-2.108;2023-12-14T08:15:58;11.80;;;3.10;;
28934;SDS011;16044;52.726;-2.108;2023-12-14T08:18:28;10.75;;;3.30;;
28934;SDS011;16044;52.726;-2.108;2023-12-14T08:20:58;9.30;;;2.97;;
28934;SDS011;16044;52.726;-2.108;2023-12-14T08:23:29;9.45;;;2.83;;
28934;SDS011;16044;52.726;-2.108;2023-12-14T08:26:02;13.13;;;2.92;;
28934;SDS011;16044;52.726;-2.108;2023-12-14T08:28:34;10.43;;;2.83;;
28934;SDS011;16044;52.726;-2.108;2023-12-14T08:31:05;13.57;;;3.40;;
28934;SDS011;16044;52.726;-2.108;2023-12-14T08:33:37;12.10;;;3.10;;
28934;SDS011;16044;52.726;-2.108;2023-12-14T08:36:15;7.82;;;2.80;;
28934;SDS011;16044;52.726;-2.108;2023-12-14T08:38:45;13.13;;;3.15;;
28934;SDS011;16044;52.726;-2.108;2023-12-14T08:41:18;10.77;;;3.20;;
28934;SDS011;16044;52.726;-2.108;2023-12-14T08:43:49;9.88;;;3.25;;
28934;SDS011;16044;52.726;-2.108;2023-12-14T08:46:19;8.50;;;3.08;;
28934;SDS011;16044;52.726;-2.108;2023-12-14T08:48:50;9.38;;;3.22;;
28934;SDS011;16044;52.726;-2.108;2023-12-14T08:51:20;9.73;;;3.10;;
28934;SDS011;16044;52.726;-2.108;2023-12-14T08:53:52;9.48;;;2.85;;
28934;SDS011;16044;52.726;-2.108;2023-12-14T08:56:25;10.80;;;3.13;;
28934;SDS011;16044;52.726;-2.108;2023-12-14T08:58:56;11.52;;;3.13;;
28934;SDS011;16044;52.726;-2.108;2023-12-14T09:01:30;11.77;;;3.53;;
28934;SDS011;16044;52.726;-2.108;2023-12-14T09:04:01;11.73;;;3.78;;
28934;SDS011;16044;52.726;-2.108;2023-12-14T09:06:32;12.27;;;3.40;;
28934;SDS011;16044;52.726;-2.108;2023-12-14T09:09:02;11.15;;;3.78;;
28934;SDS011;16044;52.726;-2.108;2023-12-14T09:11:35;11.40;;;3.30;;
28934;SDS011;16044;52.726;-2.108;2023-12-14T09:14:07;14.30;;;3.97;;
28934;SDS011;16044;52.726;-2.108;2023-12-14T09:16:37;9.65;;;3.40;;
28934;SDS011;16044;52.726;-2.108;2023-12-14T09:19:07;13.20;;;3.33;;
28934;SDS011;16044;52.726;-2.108;2023-12-14T09:21:38;9.10;;;3.47;;
28934;SDS011;16044;52.726;-2.108;2023-12-14T09:24:12;8.88;;;3.35;;
28934;SDS011;16044;52.726;-2.108;2023-12-14T09:26:45;11.02;;;3.35;;
28934;SDS011;16044;52.726;-2.108;2023-12-14T09:29:15;9.80;;;3.45;;
28934;SDS011;16044;52.726;-2.108;2023-12-14T09:31:46;19.02;;;4.05;;
28934;SDS011;16044;52.726;-2.108;2023-12-14T09:34:17;8.93;;;4.00;;
28934;SDS011;16044;52.726;-2.108;2023-12-14T09:36:47;11.75;;;3.78;;
28934;SDS011;16044;52.726;-2.108;2023-12-14T09:39:22;12.02;;;3.85;;
28934;SDS011;16044;52.726;-2.108;2023-12-14T09:42:03;11.82;;;3.80;;
28934;SDS011;16044;52.726;-2.108;2023-12-14T09:44:35;15.50;;;3.88;;
28934;SDS011;16044;52.726;-2.108;2023-12-14T09:47:07;9.27;;;3.20;;
28934;SDS011;16044;52.726;-2.108;2023-12-14T09:49:38;10.07;;;3.58;;
28934;SDS011;16044;52.726;-2.108;2023-12-14T09:52:11;12.68;;;3.30;;
28934;SDS011;16044;52.726;-2.108;2023-12-14T09:54:41;9.93;;;3.30;;
28934;SDS011;16044;52.726;-2.108;2023-12-14T09:57:14;15.60;;;4.13;;
28934;SDS011;16044;52.726;-2.108;2023-12-14T09:59:50;11.25;;;3.30;;
28934;SDS011;16044;52.726;-2.108;2023-12-14T10:02:24;9.20;;;3.60;;
28934;SDS011;16044;52.726;-2.108;2023-12-14T10:07:26;9.68;;;3.92;;
28934;SDS011;16044;52.726;-2.108;2023-12-14T10:09:58;11.35;;;3.80;;
28934;SDS011;16044;52.726;-2.108;2023-12-14T10:12:53;12.27;;;4.00;;
28934;SDS011;16044;52.726;-2.108;2023-12-14T10:15:24;11.40;;;3.38;;
28934;SDS011;16044;52.726;-2.108;2023-12-14T10:17:56;10.88;;;3.55;;
28934;SDS011;16044;52.726;-2.108;2023-12-14T10:20:27;11.32;;;3.88;;
28934;SDS011;16044;52.726;-2.108;2023-12-14T10:22:57;12.77;;;4.07;;
28934;SDS011;16044;52.726;-2.108;2023-12-14T10:25:28;12.50;;;4.03;;
28934;SDS011;16044;52.726;-2.108;2023-12-14T10:28:01;10.70;;;3.80;;
28934;SDS011;16044;52.726;-2.108;2023-12-14T10:30:32;10.02;;;4.22;;
28934;SDS011;16044;52.726;-2.108;2023-12-14T10:33:03;12.07;;;4.47;;
28934;SDS011;16044;52.726;-2.108;2023-12-14T10:35:33;10.60;;;4.30;;
28934;SDS011;16044;52.726;-2.108;2023-12-14T10:38:04;12.93;;;4.32;;
28934;SDS011;16044;52.726;-2.108;2023-12-14T10:40:36;7.38;;;4.40;;
28934;SDS011;16044;52.726;-2.108;2023-12-14T10:43:13;10.37;;;4.00;;
28934;SDS011;16044;52.726;-2.108;2023-12-14T10:46:05;9.90;;;4.25;;
28934;SDS011;16044;52.726;-2.108;2023-12-14T10:48:37;11.85;;;4.10;;
28934;SDS011;16044;52.726;-2.108;2023-12-14T10:51:10;12.07;;;4.50;;
28934;SDS011;16044;52.726;-2.108;2023-12-14T10:53:42;13.10;;;4.43;;
28934;SDS011;16044;52.726;-2.108;2023-12-14T10:56:14;14.73;;;4.70;;
28934;SDS011;16044;52.726;-2.108;2023-12-14T10:58:51;10.80;;;4.53;;
28934;SDS011;16044;52.726;-2.108;2023-12-14T11:01:23;13.55;;;5.05;;
28934;SDS011;16044;52.726;-2.108;2023-12-14T11:03:56;11.73;;;4.68;;
28934;SDS011;16044;52.726;-2.108;2023-12-14T11:06:30;11.80;;;4.97;;
28934;SDS011;16044;52.726;-2.108;2023-12-14T11:09:04;14.05;;;5.22;;
28934;SDS011;16044;52.726;-2.108;2023-12-14T11:11:41;14.38;;;5.82;;
28934;SDS011;16044;52.726;-2.108;2023-12-14T11:14:15;12.05;;;5.10;;
28934;SDS011;16044;52.726;-2.108;2023-12-14T11:16:47;12.23;;;4.95;;
28934;SDS011;16044;52.726;-2.108;2023-12-14T11:19:25;12.55;;;5.13;;
28934;SDS011;16044;52.726;-2.108;2023-12-14T11:24:54;18.30;;;5.53;;
28934;SDS011;16044;52.726;-2.108;2023-12-14T11:27:28;15.10;;;5.85;;
28934;SDS011;16044;52.726;-2.108;2023-12-14T11:30:03;13.05;;;5.45;;
28934;SDS011;16044;52.726;-2.108;2023-12-14T11:32:35;11.68;;;5.57;;
28934;SDS011;16044;52.726;-2.108;2023-12-14T11:35:06;10.93;;;4.82;;
28934;SDS011;16044;52.726;-2.108;2023-12-14T11:37:39;12.88;;;5.30;;
28934;SDS011;16044;52.726;-2.108;2023-12-14T11:40:10;12.15;;;5.30;;
28934;SDS011;16044;52.726;-2.108;2023-12-14T11:42:42;12.05;;;5.82;;
28934;SDS011;16044;52.726;-2.108;2023-12-14T11:45:16;13.95;;;6.38;;
28934;SDS011;16044;52.726;-2.108;2023-12-14T11:47:46;15.88;;;6.65;;
28934;SDS011;16044;52.726;-2.108;2023-12-14T11:50:17;15.77;;;6.85;;
28934;SDS011;16044;52.726;-2.108;2023-12-14T11:52:47;15.35;;;7.25;;
28934;SDS011;16044;52.726;-2.108;2023-12-14T11:55:21;12.20;;;6.22;;
28934;SDS011;16044;52.726;-2.108;2023-12-14T11:57:51;17.20;;;7.30;;
28934;SDS011;16044;52.726;-2.108;2023-12-14T12:00:25;15.40;;;6.88;;
28934;SDS011;16044;52.726;-2.108;2023-12-14T12:03:07;17.88;;;7.13;;
28934;SDS011;16044;52.726;-2.108;2023-12-14T12:05:42;12.27;;;6.30;;
28934;SDS011;16044;52.726;-2.108;2023-12-14T12:08:15;12.40;;;6.38;;
28934;SDS011;16044;52.726;-2.108;2023-12-14T12:10:48;10.57;;;6.90;;
28934;SDS011;16044;52.726;-2.108;2023-12-14T12:13:19;13.27;;;6.10;;
28934;SDS011;16044;52.726;-2.108;2023-12-14T12:15:53;12.98;;;6.05;;
28934;SDS011;16044;52.726;-2.108;2023-12-14T12:18:23;15.70;;;6.40;;
28934;SDS011;16044;52.726;-2.108;2023-12-14T12:20:54;16.73;;;7.10;;
28934;SDS011;16044;52.726;-2.108;2023-12-14T12:23:27;12.07;;;5.82;;
28934;SDS011;16044;52.726;-2.108;2023-12-14T12:25:57;13.77;;;6.65;;
28934;SDS011;16044;52.726;-2.108;2023-12-14T12:28:28;13.88;;;6.18;;
28934;SDS011;16044;52.726;-2.108;2023-12-14T12:31:02;10.60;;;5.68;;
28934;SDS011;16044;52.726;-2.108;2023-12-14T12:33:33;14.40;;;6.13;;
28934;SDS011;16044;52.726;-2.108;2023-12-14T12:36:05;15.85;;;6.68;;
28934;SDS011;16044;52.726;-2.108;2023-12-14T12:38:37;10.27;;;5.72;;
28934;SDS011;16044;52.726;-2.108;2023-12-14T12:41:08;11.10;;;6.15;;
28934;SDS011;16044;52.726;-2.108;2023-12-14T12:43:38;10.77;;;5.55;;
28934;SDS011;16044;52.726;-2.108;2023-12-14T12:46:11;12.13;;;5.80;;
28934;SDS011;16044;52.726;-2.108;2023-12-14T12:48:42;10.38;;;5.60;;
28934;SDS011;16044;52.726;-2.108;2023-12-14T12:51:13;13.63;;;5.28;;
28934;SDS011;16044;52.726;-2.108;2023-12-14T12:53:44;13.15;;;5.28;;
28934;SDS011;16044;52.726;-2.108;2023-12-14T12:56:14;15.13;;;5.30;;
28934;SDS011;16044;52.726;-2.108;2023-12-14T12:58:44;14.25;;;5.90;;
28934;SDS011;16044;52.726;-2.108;2023-12-14T13:01:19;12.27;;;5.72;;
28934;SDS011;16044;52.726;-2.108;2023-12-14T13:03:52;14.90;;;5.07;;
28934;SDS011;16044;52.726;-2.108;2023-12-14T13:06:25;13.07;;;5.43;;
28934;SDS011;16044;52.726;-2.108;2023-12-14T13:08:55;14.13;;;5.50;;
28934;SDS011;16044;52.726;-2.108;2023-12-14T13:11:25;16.38;;;5.50;;
28934;SDS011;16044;52.726;-2.108;2023-12-14T13:13:56;13.57;;;5.65;;
28934;SDS011;16044;52.726;-2.108;2023-12-14T13:16:30;13.23;;;5.13;;
28934;SDS011;16044;52.726;-2.108;2023-12-14T13:19:01;12.15;;;5.28;;
28934;SDS011;16044;52.726;-2.108;2023-12-14T13:21:33;13.05;;;5.03;;
28934;SDS011;16044;52.726;-2.108;2023-12-14T13:24:03;11.40;;;4.82;;
28934;SDS011;16044;52.726;-2.108;2023-12-14T13:26:34;12.48;;;4.88;;
28934;SDS011;16044;52.726;-2.108;2023-12-14T13:29:05;15.35;;;4.95;;
28934;SDS011;16044;52.726;-2.108;2023-12-14T13:31:38;14.70;;;5.53;;
28934;SDS011;16044;52.726;-2.108;2023-12-14T13:34:08;18.25;;;4.78;;
28934;SDS011;16044;52.726;-2.108;2023-12-14T13:36:38;19.35;;;4.10;;
28934;SDS011;16044;52.726;-2.108;2023-12-14T13:39:09;21.52;;;3.92;;
28934;SDS011;16044;52.726;-2.108;2023-12-14T13:41:40;25.67;;;3.78;;
28934;SDS011;16044;52.726;-2.108;2023-12-14T13:44:16;28.13;;;3.63;;
28934;SDS011;16044;52.726;-2.108;2023-12-14T13:46:49;28.35;;;4.13;;
28934;SDS011;16044;52.726;-2.108;2023-12-14T13:49:19;26.95;;;4.00;;
28934;SDS011;16044;52.726;-2.108;2023-12-14T13:51:50;32.33;;;4.15;;
28934;SDS011;16044;52.726;-2.108;2023-12-14T13:54:21;34.38;;;4.53;;
28934;SDS011;16044;52.726;-2.108;2023-12-14T13:56:52;29.10;;;4.22;;
28934;SDS011;16044;52.726;-2.108;2023-12-14T13:59:22;31.63;;;4.60;;
28934;SDS011;16044;52.726;-2.108;2023-12-14T14:01:55;36.05;;;4.43;;
28934;SDS011;16044;52.726;-2.108;2023-12-14T14:04:26;36.53;;;4.68;;
28934;SDS011;16044;52.726;-2.108;2023-12-14T14:06:56;31.20;;;4.78;;
28934;SDS011;16044;52.726;-2.108;2023-12-14T14:09:26;30.73;;;5.25;;
28934;SDS011;16044;52.726;-2.108;2023-12-14T14:11:57;34.08;;;5.18;;
28934;SDS011;16044;52.726;-2.108;2023-12-14T14:14:27;33.67;;;5.50;;
28934;SDS011;16044;52.726;-2.108;2023-12-14T14:17:00;35.92;;;4.40;;
28934;SDS011;16044;52.726;-2.108;2023-12-14T14:19:33;36.58;;;4.80;;
28934;SDS011;16044;52.726;-2.108;2023-12-14T14:22:03;31.40;;;4.38;;
28934;SDS011;16044;52.726;-2.108;2023-12-14T14:24:34;34.30;;;5.40;;
28934;SDS011;16044;52.726;-2.108;2023-12-14T14:27:04;30.00;;;4.03;;
28934;SDS011;16044;52.726;-2.108;2023-12-14T14:29:34;29.45;;;4.80;;
28934;SDS011;16044;52.726;-2.108;2023-12-14T14:32:07;32.50;;;5.25;;
28934;SDS011;16044;52.726;-2.108;2023-12-14T14:34:38;26.30;;;3.95;;
28934;SDS011;16044;52.726;-2.108;2023-12-14T14:37:08;87.85;;;38.33;;
28934;SDS011;16044;52.726;-2.108;2023-12-14T14:39:39;54.58;;;16.27;;
28934;SDS011;16044;52.726;-2.108;2023-12-14T14:42:10;39.85;;;8.80;;
28934;SDS011;16044;52.726;-2.108;2023-12-14T14:44:40;42.72;;;7.82;;
28934;SDS011;16044;52.726;-2.108;2023-12-14T14:47:13;33.20;;;6.35;;
28934;SDS011;16044;52.726;-2.108;2023-12-14T14:49:44;33.58;;;7.70;;
28934;SDS011;16044;52.726;-2.108;2023-12-14T14:52:15;31.02;;;7.55;;